Nearby METAR Reports

KLNK - Lincoln, Nebraska, USA
Distance from station: WNW 8mi, 13km
Updated: Mon, 08-Aug-2022 10:29am CDT
Mostly Cloudy
Mostly Cloudy
 Wind from N
Wind: N 12 mph , 19 km/h
Temperature: 73°F , 23°C
Dew Point: 59°F , 15°C
Humidity: 61%
Barometer: 30.16 inHg , 1021.3 hPa
Clouds: Mostly Cloudy
Visibility: 10 miles , 16 km
Cloud details: Mostly Cloudy 2300 ft
2022/08/08 15:29 KLNK 081529Z 35010KT 10SM BKN023 23/15 A3016 RMK AO2 T02330150
KAHQ - Wahoo, Nebraska, USA
Distance from station: N 31mi, 49km
Updated: Mon, 08-Aug-2022 10:15am CDT
Partly Cloudy
Partly Cloudy
 Wind from NNW
Wind: NNW 6 mph , 9 km/h
Temperature: 70°F , 21°C
Dew Point: 59°F , 15°C
Humidity: 69%
Barometer: 30.15 inHg , 1021 hPa
Clouds: Partly Cloudy
Visibility: 10 miles , 16 km
Cloud details: Partly Cloudy 2100 ft
2022/08/08 15:15 KAHQ 081515Z AUTO 34005KT 10SM SCT021 21/15 A3015 RMK AO2 T02100147
 
KBIE - Beatrice Municip, Nebraska, USA
Distance from station: S 36mi, 57km
Updated: Mon, 08-Aug-2022 10:15am CDT
Overcast
Overcast
 Wind from NE
Wind: NE 9 mph , 15 km/h
Temperature: 68°F , 20°C
Dew Point: 61°F , 16°C
Humidity: 78%
Barometer: 30.15 inHg , 1021 hPa
Clouds: Overcast
Visibility: 10 miles , 16 km
Cloud details: Overcast 1500 ft
2022/08/08 15:15 KBIE 081515Z AUTO 04008KT 10SM OVC015 20/16 A3015 RMK AO2 T01960160
KMLE - Omaha/Millard, Nebraska, USA
Distance from station: NE 39mi, 63km
Updated: Mon, 08-Aug-2022 10:15am CDT
Mostly Cloudy
Mostly Cloudy
 Wind from N
Wind: N 6 mph , 9 km/h
Temperature: 72°F , 22°C
Dew Point: 59°F , 15°C
Humidity: 65%
Barometer: 30.13 inHg , 1020.3 hPa
Clouds: Mostly Cloudy
Visibility: 10 miles , 16 km
Cloud details: Mostly Cloudy 2500 ft
Mostly Cloudy 3100 ft
2022/08/08 15:15 KMLE 081515Z AUTO 35005KT 10SM BKN025 BKN031 22/15 A3013 RMK AO2 T02150145
 
KPMV - Plattsmouth Muni, Nebraska, USA
Distance from station: ENE 39mi, 63km
Updated: Mon, 08-Aug-2022 10:15am CDT
Partly Cloudy
Partly Cloudy
 Wind from N
Wind: N 8 mph , 13 km/h
Temperature: 72°F , 22°C
Dew Point: 61°F , 16°C
Humidity: 69%
Barometer: 30.13 inHg , 1020.3 hPa
Clouds: Partly Cloudy
Visibility: 10 miles , 16 km
Cloud details: Partly Cloudy 2100 ft
2022/08/08 15:15 KPMV 081515Z AUTO 36007KT 320V030 10SM SCT021 22/16 A3013 RMK AO2 T02180156
KAFK - Nebraska City, Nebraska, USA
Distance from station: ESE 43mi, 69km
Updated: Mon, 08-Aug-2022 10:15am CDT
Overcast
Overcast
 Wind from N
Wind: N 8 mph , 13 km/h
Temperature: 68°F , 20°C
Dew Point: 63°F , 17°C
Humidity: 83%
Barometer: 30.13 inHg , 1020.3 hPa
Clouds: Overcast
Visibility: 10 miles , 16 km
Cloud details: Overcast 1400 ft
2022/08/08 15:15 KAFK 081515Z AUTO 01007KT 10SM OVC014 20/17 A3013 RMK AO2 T01980165
 
KOFF - Offutt Afb/Belle, Nebraska, USA
Distance from station: ENE 44mi, 70km
Updated: Mon, 08-Aug-2022 9:56am CDT
Few Clouds
Few Clouds
 Wind from NNW
Wind: NNW 9 mph , 15 km/h
Temperature: 70°F , 21°C
Dew Point: 61°F , 16°C
Humidity: 73%
Barometer: 30.14 inHg , 1020.7 hPa
Clouds: Few Clouds
Visibility: 10 miles , 16 km
Cloud details: Few Clouds 1800 ft
2022/08/08 14:56 KOFF 081456Z 34008KT 10SM FEW018 21/16 A3014 RMK AO2A SLP205 T02120155 52013 PWINO PNO FZRANO TSNO VISNO RWY12 CHINO RWY12 $
KFET - Fremont Muni Arp, Nebraska, USA
Distance from station: N 46mi, 74km
Updated: Mon, 08-Aug-2022 10:15am CDT
Partly Cloudy
Partly Cloudy
 Wind from NNE
Wind: NNE 9 mph , 15 km/h
Temperature: 70°F , 21°C
Dew Point: 57°F , 14°C
Humidity: 64%
Barometer: 30.15 inHg , 1021 hPa
Clouds: Partly Cloudy
Visibility: 10 miles , 16 km
Cloud details: Partly Cloudy 1700 ft
2022/08/08 15:15 KFET 081515Z AUTO 02008KT 350V050 10SM SCT017 21/14 A3015 RMK AO2 T02090139
 
KBTA - Blair Muni, Nebraska, USA
Distance from station: NNE 51mi, 82km
Updated: Mon, 08-Aug-2022 10:15am CDT
Partly Cloudy
Partly Cloudy
 Wind from NNE
Wind: NNE 6 mph , 9 km/h
Temperature: 68°F , 20°C
Dew Point: 59°F , 15°C
Humidity: 73%
Barometer: 30.14 inHg , 1020.7 hPa
Clouds: Partly Cloudy
Visibility: 10 miles , 16 km
Cloud details: Partly Cloudy 2200 ft
2022/08/08 15:15 KBTA 081515Z AUTO 03005KT 10SM SCT022 20/15 A3014 RMK AO2 T02030150
KJYR - York, Nebraska, USA
Distance from station: W 52mi, 84km
Updated: Mon, 08-Aug-2022 10:15am CDT
Mostly Cloudy
Mostly Cloudy
 Wind from NNE
Wind: NNE 9 mph , 15 km/h
Temperature: 68°F , 20°C
Dew Point: 59°F , 15°C
Humidity: 73%
Barometer: 30.17 inHg , 1021.7 hPa
Clouds: Mostly Cloudy
Visibility: 10 miles , 16 km
Cloud details: Mostly Cloudy 2000 ft
Mostly Cloudy 2600 ft
2022/08/08 15:15 KJYR 081515Z AUTO 02008KT 10SM BKN020 BKN026 20/15 A3017 RMK AO2
 
KOMA - Omaha/Eppley, Nebraska, USA
Distance from station: NE 53mi, 85km
Updated: Mon, 08-Aug-2022 9:52am CDT
Partly Cloudy
Partly Cloudy
 Wind from NNW
Wind: NNW 10 mph , 17 km/h
Temperature: 72°F , 22°C
Dew Point: 61°F , 16°C
Humidity: 69%
Barometer: 30.11 inHg , 1019.6 hPa
Clouds: Partly Cloudy
Visibility: 10 miles , 16 km
Cloud details: Partly Cloudy 2300 ft
Partly Cloudy 25000 ft
2022/08/08 14:52 KOMA 081452Z 33009KT 10SM SCT023 SCT250 22/16 A3011 RMK AO2 SLP189 T02170161 53010
KOLU - Columbus Muni, Nebraska, USA
Distance from station: NW 58mi, 93km
Updated: Mon, 08-Aug-2022 9:56am CDT
Few Clouds
Few Clouds
 Wind from N
Wind: N 10 mph , 17 km/h
Temperature: 70°F , 21°C
Dew Point: 59°F , 15°C
Humidity: 69%
Barometer: 30.17 inHg , 1021.7 hPa
Clouds: Few Clouds
Visibility: 10 miles , 16 km
Cloud details: Few Clouds 1900 ft
2022/08/08 14:56 KOLU 081456Z AUTO 01009KT 10SM FEW019 21/15 A3017 RMK AO2 SLP211 T02060150 53010